Time;durP1;ratioP1;P1;durP2;ratioP2;P2;SDS_P1;SDS_P2;PMS_P1;PMS_P2;Temp;Humidity;BMP_temperature;BMP_pressure;BME280_temperature;BME280_humidity;BME280_pressure;Samples;Min_cycle;Max_cycle;Signal;HPM_P1;HPM_P2
2021/07/27 00:00:39;;;;;;;;;;;;;;;22.04;100.00;99776.77;1702882;82;20130;-78
2021/07/27 00:03:05;;;;;;;;;;;;;;;22.02;100.00;99780.23;1697036;83;20126;-78
2021/07/27 00:05:31;;;;;;;;;;;;;;;22.00;100.00;99777.78;1703443;82;20133;-80
2021/07/27 00:07:56;;;;;;;;;;;;;;;21.94;100.00;99776.56;1684101;83;20150;-83
2021/07/27 00:10:27;;;;;;;;;;;;;;;21.80;100.00;99772.84;1699499;83;20157;-80
2021/07/27 00:12:52;;;;;;;;;;;;;;;21.82;100.00;99766.68;1697340;82;20507;-77
2021/07/27 00:15:18;;;;;;;;;;;;;;;21.85;100.00;99771.58;1701559;82;21134;-81
2021/07/27 00:17:45;;;;;;;;;;;;;;;21.82;100.00;99765.34;1703369;83;20451;-79
2021/07/27 00:20:11;;;;;;;;;;;;;;;21.83;100.00;99764.80;1700653;83;20447;-78
2021/07/27 00:22:40;;;;;;;;;;;;;;;21.79;100.00;99767.16;1704827;83;20185;-77
2021/07/27 00:25:10;;;;;;;;;;;;;;;21.74;100.00;99763.04;1705514;82;20510;-78
2021/07/27 00:27:36;;;;;;;;;;;;;;;21.71;100.00;99766.20;1703739;83;22034;-80
2021/07/27 00:30:06;;;;;;;;;;;;;;;21.70;100.00;99761.88;1701042;82;20284;-77
2021/07/27 00:32:39;;;;;;;;;;;;;;;21.68;100.00;99764.00;1708992;82;20166;-78
2021/07/27 00:35:06;;;;;;;;;;;;;;;21.67;100.00;99761.01;1700705;82;20211;-78
2021/07/27 00:37:33;;;;;;;;;;;;;;;21.60;100.00;99753.09;1699225;82;20178;-79
2021/07/27 00:39:59;;;;;;;;;;;;;;;21.56;100.00;99749.78;1698524;82;21096;-78
2021/07/27 00:42:24;;;;;;;;;;;;;;;21.60;100.00;99752.30;1710580;82;20307;-78
2021/07/27 00:44:50;;;;;;;;;;;;;;;21.57;100.00;99758.14;1692981;82;20138;-79
2021/07/27 00:47:15;;;;;;;;;;;;;;;21.54;100.00;99756.73;1706272;82;20420;-81
2021/07/27 00:49:42;;;;;;;;;;;;;;;21.55;100.00;99765.60;1712904;82;20224;-78
2021/07/27 00:52:10;;;;;;;;;;;;;;;21.56;100.00;99764.56;1705344;82;21906;-78
2021/07/27 00:54:37;;;;;;;;;;;;;;;21.39;100.00;99764.45;1716402;82;20178;-81
2021/07/27 00:57:03;;;;;;;;;;;;;;;21.41;100.00;99760.48;1711540;82;20334;-78
2021/07/27 00:59:29;;;;;;;;;;;;;;;21.42;100.00;99756.73;1704567;82;20132;-78
2021/07/27 01:01:54;;;;;;;;;;;;;;;21.33;100.00;99758.14;1708033;82;20164;-82
2021/07/27 01:04:20;;;;;;;;;;;;;;;21.22;100.00;99750.94;1686766;82;22432;-76
2021/07/27 01:06:46;;;;;;;;;;;;;;;21.25;100.00;99757.18;1713233;82;20274;-80
2021/07/27 01:09:12;;;;;;;;;;;;;;;21.20;100.00;99753.86;1700314;82;20187;-79
2021/07/27 01:11:41;;;;;;;;;;;;;;;21.23;100.00;99749.36;1700789;83;20160;-78
2021/07/27 01:14:06;;;;;;;;;;;;;;;21.20;100.00;99750.36;1691521;82;20279;-77
2021/07/27 01:16:34;;;;;;;;;;;;;;;21.22;100.00;99758.99;1708687;82;21095;-81
2021/07/27 01:38:10;;;;;;;;;;;;;;;20.97;100.00;99758.72;1708668;82;20193;-79
2021/07/27 01:40:27;;;;;;;;;;;;;;;21.03;100.00;99769.87;1705889;82;20122;-79
2021/07/27 01:42:53;;;;;;;;;;;;;;;21.02;100.00;99770.10;1701568;82;20170;-79
2021/07/27 01:45:19;;;;;;;;;;;;;;;20.95;100.00;99767.55;1701385;82;20424;-82
2021/07/27 01:47:44;;;;;;;;;;;;;;;20.97;100.00;99772.98;1704539;82;20273;-78
2021/07/27 01:50:13;;;;;;;;;;;;;;;20.95;100.00;99767.55;1711175;82;20173;-78
2021/07/27 01:52:46;;;;;;;;;;;;;;;20.97;100.00;99758.22;1714388;82;20215;-78
2021/07/27 01:55:09;;;;;;;;;;;;;;;21.03;100.00;99761.81;1703913;82;20645;-78
2021/07/27 01:57:34;;;;;;;;;;;;;;;20.98;100.00;99753.66;1705837;82;20198;-82
2021/07/27 02:00:03;;;;;;;;;;;;;;;20.95;100.00;99754.12;1696701;82;20164;-79
2021/07/27 02:02:29;;;;;;;;;;;;;;;20.84;100.00;99748.25;1705348;82;20221;-79
2021/07/27 02:04:54;;;;;;;;;;;;;;;20.82;100.00;99753.00;1713188;83;20161;-79
2021/07/27 02:07:20;;;;;;;;;;;;;;;20.82;100.00;99748.98;1708636;82;21093;-77
2021/07/27 02:09:48;;;;;;;;;;;;;;;20.86;100.00;99746.94;1718134;82;20264;-79
2021/07/27 02:12:18;;;;;;;;;;;;;;;20.88;100.00;99746.70;1697590;82;20203;-78
2021/07/27 02:17:24;;;;;;;;;;;;;;;20.90;100.00;99756.70;1711160;82;20330;-76
2021/07/27 02:19:50;;;;;;;;;;;;;;;20.90;100.00;99765.56;1702441;82;21140;-79
2021/07/27 02:22:17;;;;;;;;;;;;;;;20.88;100.00;99760.97;1703079;82;20345;-78
2021/07/27 02:24:47;;;;;;;;;;;;;;;20.83;100.00;99758.68;1707968;82;20224;-78
2021/07/27 02:27:12;;;;;;;;;;;;;;;20.80;100.00;99763.47;1704736;82;20143;-80
2021/07/27 02:29:38;;;;;;;;;;;;;;;20.76;100.00;99758.27;1709603;82;20190;-77
2021/07/27 02:32:03;;;;;;;;;;;;;;;20.73;100.00;99761.41;1711472;82;20938;-78
2021/07/27 02:34:32;;;;;;;;;;;;;;;20.78;100.00;99768.23;1707626;82;20206;-77
2021/07/27 02:36:58;;;;;;;;;;;;;;;20.78;100.00;99762.87;1709446;82;20142;-77
2021/07/27 02:39:25;;;;;;;;;;;;;;;20.80;100.00;99765.31;1718068;82;20180;-81
2021/07/27 02:41:51;;;;;;;;;;;;;;;20.76;100.00;99766.31;1696676;82;20122;-78
2021/07/27 02:44:18;;;;;;;;;;;;;;;20.74;100.00;99767.09;1712845;82;21074;-80
2021/07/27 02:46:47;;;;;;;;;;;;;;;20.71;100.00;99766.71;1705435;82;20224;-78
2021/07/27 02:49:13;;;;;;;;;;;;;;;20.70;100.00;99761.08;1710793;82;20199;-77
2021/07/27 02:51:38;;;;;;;;;;;;;;;20.71;100.00;99751.95;1709034;82;20744;-79
2021/07/27 02:54:08;;;;;;;;;;;;;;;20.71;100.00;99748.77;1706950;82;20150;-77
2021/07/27 02:56:34;;;;;;;;;;;;;;;20.69;100.00;99754.06;1670844;83;22039;-78
2021/07/27 02:59:01;;;;;;;;;;;;;;;20.66;100.00;99748.63;1701136;83;20379;-78
2021/07/27 03:01:27;;;;;;;;;;;;;;;20.67;100.00;99752.95;1705711;82;20111;-78
2021/07/27 03:03:52;;;;;;;;;;;;;;;20.68;100.00;99753.25;1706944;82;20136;-78
2021/07/27 03:06:19;;;;;;;;;;;;;;;20.67;100.00;99755.63;1701942;82;20169;-77
2021/07/27 03:09:03;;;;;;;;;;;;;;;20.71;100.00;99755.98;1715222;82;21063;-78
2021/07/27 03:11:18;;;;;;;;;;;;;;;20.74;100.00;99744.28;1699548;82;20137;-81
2021/07/27 03:13:44;;;;;;;;;;;;;;;20.71;100.00;99750.11;1704025;82;20191;-78
2021/07/27 03:16:21;;;;;;;;;;;;;;;20.65;100.00;99747.02;1714083;82;20323;-79
2021/07/27 03:18:53;;;;;;;;;;;;;;;20.62;100.00;99739.39;1716006;82;20230;-76
2021/07/27 03:21:22;;;;;;;;;;;;;;;20.62;100.00;99737.52;1709649;82;21143;-79
2021/07/27 03:23:48;;;;;;;;;;;;;;;20.65;100.00;99738.97;1692253;82;20151;-78
2021/07/27 03:26:14;;;;;;;;;;;;;;;20.64;100.00;99745.34;1698166;82;20155;-81
2021/07/27 03:28:41;;;;;;;;;;;;;;;20.69;100.00;99756.21;1701544;82;20659;-78
2021/07/27 03:31:06;;;;;;;;;;;;;;;20.75;100.00;99744.55;1705765;82;20183;-82
2021/07/27 03:33:32;;;;;;;;;;;;;;;20.79;100.00;99747.60;1701165;82;21242;-79
2021/07/27 03:36:01;;;;;;;;;;;;;;;20.82;100.00;99759.72;1711239;82;20213;-79
2021/07/27 03:38:28;;;;;;;;;;;;;;;20.84;100.00;99754.95;1682343;82;20480;-78
2021/07/27 03:41:04;;;;;;;;;;;;;;;20.91;100.00;99754.30;1702615;82;20221;-78
2021/07/27 03:43:32;;;;;;;;;;;;;;;20.94;100.00;99747.95;1701961;82;20160;-78
2021/07/27 03:45:57;;;;;;;;;;;;;;;20.97;100.00;99747.48;1714448;82;20188;-78
2021/07/27 03:48:24;;;;;;;;;;;;;;;20.97;100.00;99750.16;1706627;82;20233;-78
2021/07/27 03:50:50;;;;;;;;;;;;;;;20.97;100.00;99752.84;1709602;82;20560;-79
2021/07/27 03:53:18;;;;;;;;;;;;;;;21.01;100.00;99755.88;1710269;82;20284;-83
2021/07/27 03:55:43;;;;;;;;;;;;;;;21.07;100.00;99748.76;1679490;83;20178;-77
2021/07/27 03:58:09;;;;;;;;;;;;;;;21.12;100.00;99752.34;1709688;82;21072;-78
2021/07/27 04:00:36;;;;;;;;;;;;;;;21.15;100.00;99754.56;1708205;82;20924;-78
2021/07/27 04:03:05;;;;;;;;;;;;;;;21.23;100.00;99763.33;1705346;82;20265;-82
2021/07/27 04:05:33;;;;;;;;;;;;;;;21.22;100.00;99762.48;1714391;82;20196;-80
2021/07/27 04:08:00;;;;;;;;;;;;;;;21.26;100.00;99760.16;1694234;82;20273;-80
2021/07/27 04:10:27;;;;;;;;;;;;;;;21.28;100.00;99760.73;1713685;82;20955;-77
2021/07/27 04:12:52;;;;;;;;;;;;;;;21.32;100.00;99757.87;1710038;82;20491;-78
2021/07/27 04:15:21;;;;;;;;;;;;;;;21.38;100.00;99760.96;1716096;82;20156;-76
2021/07/27 04:17:49;;;;;;;;;;;;;;;21.43;99.50;99754.88;1701189;83;20186;-77
2021/07/27 04:20:15;;;;;;;;;;;;;;;21.38;98.98;99746.19;1706252;82;20228;-76
2021/07/27 04:22:42;;;;;;;;;;;;;;;21.36;98.97;99749.61;1709411;82;21114;-77
2021/07/27 04:25:08;;;;;;;;;;;;;;;21.40;99.10;99744.06;1705090;82;20544;-77
2021/07/27 04:27:34;;;;;;;;;;;;;;;21.41;98.57;99743.53;1703228;82;20209;-77
2021/07/27 04:29:59;;;;;;;;;;;;;;;21.34;98.58;99740.98;1716023;82;20138;-76
2021/07/27 04:32:26;;;;;;;;;;;;;;;21.28;98.74;99743.28;1710682;82;20162;-78
2021/07/27 04:34:52;;;;;;;;;;;;;;;21.22;98.94;99732.95;1711669;82;21041;-80
2021/07/27 04:37:20;;;;;;;;;;;;;;;21.22;99.52;99734.83;1704002;82;20224;-76
2021/07/27 04:39:46;;;;;;;;;;;;;;;21.25;99.35;99739.72;1705821;82;20137;-77
2021/07/27 04:42:15;;;;;;;;;;;;;;;21.14;99.20;99743.52;1697814;82;20125;-76
2021/07/27 04:44:40;;;;;;;;;;;;;;;21.20;99.39;99739.63;1713488;82;20496;-76
2021/07/27 04:47:06;;;;;;;;;;;;;;;21.29;99.86;99739.02;1699436;82;21142;-77
2021/07/27 04:49:31;;;;;;;;;;;;;;;21.33;98.63;99739.34;1701965;82;20158;-78
2021/07/27 04:52:01;;;;;;;;;;;;;;;21.36;98.02;99732.16;1706681;83;20167;-76
2021/07/27 04:54:41;;;;;;;;;;;;;;;21.22;98.32;99734.83;1709866;82;20206;-78
2021/07/27 04:57:00;;;;;;;;;;;;;;;21.18;99.06;99730.97;1697066;83;21153;-78
2021/07/27 04:59:28;;;;;;;;;;;;;;;21.31;98.55;99733.41;1708226;82;21169;-82
2021/07/27 05:01:53;;;;;;;;;;;;;;;21.48;97.89;99735.63;1710188;82;20504;-77
2021/07/27 05:04:19;;;;;;;;;;;;;;;21.56;97.47;99730.97;1715370;83;20702;-80
2021/07/27 05:06:46;;;;;;;;;;;;;;;21.54;97.21;99732.55;1704741;82;20440;-76
2021/07/27 05:09:11;;;;;;;;;;;;;;;21.53;98.04;99719.36;1700691;82;20468;-80
2021/07/27 05:11:40;;;;;;;;;;;;;;;21.62;97.92;99728.67;1717944;82;21191;-78
2021/07/27 05:14:08;;;;;;;;;;;;;;;21.59;97.32;99732.64;1694237;83;20541;-80
2021/07/27 05:16:36;;;;;;;;;;;;;;;21.70;97.12;99725.59;1711364;82;20210;-78
2021/07/27 05:19:05;;;;;;;;;;;;;;;21.59;97.04;99727.81;1711209;82;20281;-77
2021/07/27 05:21:30;;;;;;;;;;;;;;;21.58;97.37;99722.14;1710820;82;20117;-77
2021/07/27 05:23:57;;;;;;;;;;;;;;;21.69;97.17;99723.98;1704451;82;20979;-77
2021/07/27 05:26:23;;;;;;;;;;;;;;;21.65;97.22;99729.54;1700259;82;20180;-77
2021/07/27 05:28:49;;;;;;;;;;;;;;;21.73;97.60;99729.69;1715648;83;20213;-77
2021/07/27 05:31:14;;;;;;;;;;;;;;;21.79;97.22;99732.22;1704983;82;20164;-77
2021/07/27 05:33:42;;;;;;;;;;;;;;;21.83;97.12;99741.44;1706961;82;20189;-76
2021/07/27 05:36:07;;;;;;;;;;;;;;;21.94;96.21;99741.61;1690713;83;21797;-81
2021/07/27 05:38:33;;;;;;;;;;;;;;;22.04;95.53;99745.84;1699472;82;20149;-79
2021/07/27 05:40:58;;;;;;;;;;;;;;;22.09;95.45;99743.23;1704496;82;20154;-77
2021/07/27 05:43:24;;;;;;;;;;;;;;;22.16;95.23;99741.22;1709917;82;20127;-76
2021/07/27 05:45:49;;;;;;;;;;;;;;;22.27;95.10;99745.44;1707465;82;20211;-77
2021/07/27 05:48:15;;;;;;;;;;;;;;;22.39;94.81;99759.66;1710926;82;21093;-79
2021/07/27 05:50:41;;;;;;;;;;;;;;;22.30;95.32;99761.09;1703829;82;20821;-79
2021/07/27 05:53:06;;;;;;;;;;;;;;;22.44;94.46;99765.11;1698217;83;20162;-75
2021/07/27 05:55:32;;;;;;;;;;;;;;;22.57;93.27;99767.46;1705717;82;20160;-77
2021/07/27 05:57:57;;;;;;;;;;;;;;;22.52;92.78;99768.73;1703120;82;20511;-77
2021/07/27 06:00:23;;;;;;;;;;;;;;;22.64;92.91;99769.17;1699360;82;21074;-76
2021/07/27 06:02:48;;;;;;;;;;;;;;;22.51;92.50;99775.20;1703015;82;20144;-77
2021/07/27 06:05:14;;;;;;;;;;;;;;;22.65;92.63;99768.92;1710330;83;20263;-78
2021/07/27 06:07:39;;;;;;;;;;;;;;;22.70;92.84;99781.14;1697023;82;20143;-79
2021/07/27 06:10:06;;;;;;;;;;;;;;;22.74;93.23;99782.80;1706972;82;20472;-77
2021/07/27 06:12:31;;;;;;;;;;;;;;;22.77;93.58;99786.34;1710014;83;21059;-78
2021/07/27 06:14:57;;;;;;;;;;;;;;;22.73;93.54;99798.66;1708341;82;20165;-78
2021/07/27 06:17:22;;;;;;;;;;;;;;;22.75;93.98;99789.83;1702697;82;20191;-77
2021/07/27 06:19:48;;;;;;;;;;;;;;;22.79;94.26;99793.64;1698292;82;20792;-78
2021/07/27 06:22:18;;;;;;;;;;;;;;;22.90;94.02;99799.48;1704783;82;20174;-77
2021/07/27 06:24:43;;;;;;;;;;;;;;;22.91;94.06;99795.71;1703350;82;21041;-78
2021/07/27 06:27:09;;;;;;;;;;;;;;;23.06;93.67;99789.75;1708423;82;20274;-78
2021/07/27 06:29:34;;;;;;;;;;;;;;;23.10;93.43;99792.27;1702859;82;20148;-78
2021/07/27 06:32:00;;;;;;;;;;;;;;;23.12;93.48;99797.41;1702468;82;20598;-79
2021/07/27 06:34:25;;;;;;;;;;;;;;;23.17;94.06;99798.81;1706695;82;20167;-78
2021/07/27 06:36:51;;;;;;;;;;;;;;;23.22;93.30;99792.14;1701367;82;21140;-75
2021/07/27 06:39:17;;;;;;;;;;;;;;;23.30;92.64;99796.29;1706822;82;20555;-78
2021/07/27 06:41:43;;;;;;;;;;;;;;;23.21;93.97;99793.23;1704214;82;20120;-79
2021/07/27 06:44:08;;;;;;;;;;;;;;;23.26;93.91;99793.28;1713230;82;20207;-76
2021/07/27 06:46:34;;;;;;;;;;;;;;;23.48;93.26;99796.53;1714818;82;20139;-76
2021/07/27 06:49:00;;;;;;;;;;;;;;;23.46;93.30;99808.08;1707086;82;20426;-77
2021/07/27 06:51:25;;;;;;;;;;;;;;;23.50;93.80;99809.22;1701297;82;20302;-77
2021/07/27 06:53:51;;;;;;;;;;;;;;;23.46;95.08;99808.08;1702504;83;20834;-77
2021/07/27 06:56:16;;;;;;;;;;;;;;;23.36;95.61;99807.96;1697072;82;20150;-78
2021/07/27 06:58:42;;;;;;;;;;;;;;;23.43;96.23;99811.27;1695199;83;20166;-77
2021/07/27 07:01:10;;;;;;;;;;;;;;;23.53;95.46;99814.11;1709719;83;21846;-77
2021/07/27 07:03:42;;;;;;;;;;;;;;;23.57;95.87;99817.94;1709795;82;20172;-79
2021/07/27 07:06:09;;;;;;;;;;;;;;;23.55;96.13;99824.09;1708869;82;20171;-77
2021/07/27 07:08:35;;;;;;;;;;;;;;;23.57;94.84;99822.50;1708024;82;20776;-79
2021/07/27 07:11:02;;;;;;;;;;;;;;;23.58;94.27;99826.83;1705435;82;20150;-79
2021/07/27 07:13:27;;;;;;;;;;;;;;;23.53;95.14;99832.97;1715053;82;21067;-77
2021/07/27 07:15:53;;;;;;;;;;;;;;;23.44;95.48;99837.16;1706696;82;20387;-77
2021/07/27 07:18:19;;;;;;;;;;;;;;;23.43;95.47;99836.87;1691787;83;20197;-76
2021/07/27 07:20:45;;;;;;;;;;;;;;;23.30;95.83;99835.36;1707090;82;20121;-76
2021/07/27 07:23:10;;;;;;;;;;;;;;;23.34;94.62;99828.42;1694997;83;20131;-77
2021/07/27 07:25:39;;;;;;;;;;;;;;;23.26;95.16;99836.39;1702614;82;21933;-78
2021/07/27 07:28:04;;;;;;;;;;;;;;;23.34;96.08;99845.09;1700341;83;20182;-77
2021/07/27 07:30:29;;;;;;;;;;;;;;;23.19;96.51;99844.36;1710824;82;20309;-77
2021/07/27 07:32:55;;;;;;;;;;;;;;;23.19;97.55;99836.28;1714526;82;20154;-76
2021/07/27 07:35:23;;;;;;;;;;;;;;;23.23;97.27;99839.58;1705812;82;20545;-75
2021/07/27 07:37:48;;;;;;;;;;;;;;;23.22;97.77;99835.78;1707233;82;20197;-77
2021/07/27 07:40:14;;;;;;;;;;;;;;;23.11;98.27;99841.55;1711341;82;20140;-77
2021/07/27 07:42:40;;;;;;;;;;;;;;;23.11;96.93;99837.52;1707019;82;20194;-78
2021/07/27 07:45:06;;;;;;;;;;;;;;;23.12;96.26;99843.20;1714766;82;20123;-77
2021/07/27 07:47:31;;;;;;;;;;;;;;;23.11;96.84;99835.63;1703310;82;20139;-78
2021/07/27 07:49:59;;;;;;;;;;;;;;;23.19;97.22;99834.39;1698774;82;21939;-77
2021/07/27 07:52:24;;;;;;;;;;;;;;;23.11;97.20;99834.82;1697848;82;20139;-78
2021/07/27 07:54:50;;;;;;;;;;;;;;;23.11;97.55;99843.70;1697701;82;20149;-78
2021/07/27 07:57:15;;;;;;;;;;;;;;;23.17;98.12;99854.03;1704865;82;20820;-81
2021/07/27 07:59:41;;;;;;;;;;;;;;;23.17;97.65;99843.80;1709392;82;20154;-77
2021/07/27 08:02:07;;;;;;;;;;;;;;;23.28;96.94;99854.47;1717253;82;21062;-78
2021/07/27 08:04:32;;;;;;;;;;;;;;;23.25;96.05;99845.53;1708610;82;20146;-78
2021/07/27 08:06:58;;;;;;;;;;;;;;;23.39;96.10;99860.01;1707884;82;20126;-78
2021/07/27 08:09:23;;;;;;;;;;;;;;;23.33;95.15;99848.87;1703273;82;20334;-79
2021/07/27 08:11:49;;;;;;;;;;;;;;;23.34;94.88;99846.44;1705271;82;20154;-78
2021/07/27 08:14:15;;;;;;;;;;;;;;;23.45;94.59;99844.19;1713275;82;21148;-79
2021/07/27 08:16:40;;;;;;;;;;;;;;;23.37;94.92;99847.30;1708756;83;20822;-76
2021/07/27 08:19:06;;;;;;;;;;;;;;;23.42;94.14;99863.55;1711805;82;20138;-79
2021/07/27 08:21:31;;;;;;;;;;;;;;;23.47;95.17;99856.87;1718800;82;20430;-77
2021/07/27 08:23:57;;;;;;;;;;;;;;;23.64;93.71;99857.64;1709954;83;20111;-78
2021/07/27 08:26:22;;;;;;;;;;;;;;;23.75;93.00;99857.78;1713460;82;21317;-79
2021/07/27 08:28:49;;;;;;;;;;;;;;;23.84;91.64;99854.95;1710436;83;20550;-78
2021/07/27 08:31:14;;;;;;;;;;;;;;;24.04;91.91;99850.88;1712887;82;20708;-77
2021/07/27 08:33:41;;;;;;;;;;;;;;;24.13;90.13;99845.28;1704586;82;20159;-77
2021/07/27 08:36:07;;;;;;;;;;;;;;;24.16;89.63;99847.48;1702452;82;20170;-77
2021/07/27 08:38:34;;;;;;;;;;;;;;;24.27;89.20;99837.61;1713619;82;21122;-77
2021/07/27 08:41:00;;;;;;;;;;;;;;;24.51;87.37;99842.16;1709646;82;20211;-77
2021/07/27 08:43:25;;;;;;;;;;;;;;;24.61;86.15;99850.40;1703738;82;20288;-78
2021/07/27 08:45:51;;;;;;;;;;;;;;;24.73;84.95;99855.09;1694973;82;20126;-79
2021/07/27 08:48:17;;;;;;;;;;;;;;;24.66;80.38;99860.43;1703448;82;20148;-77
2021/07/27 08:50:43;;;;;;;;;;;;;;;24.55;80.41;99867.59;1718337;82;21076;-77
2021/07/27 08:53:09;;;;;;;;;;;;;;;24.54;81.16;99857.85;1706182;82;20123;-77
2021/07/27 08:55:34;;;;;;;;;;;;;;;24.80;80.93;99854.06;1704902;82;20341;-79
2021/07/27 08:58:00;;;;;;;;;;;;;;;24.82;80.77;99853.27;1709515;82;20146;-77
2021/07/27 09:00:27;;;;;;;;;;;;;;;25.00;80.42;99858.27;1705030;83;20601;-75
2021/07/27 09:02:52;;;;;;;;;;;;;;;25.06;79.36;99859.93;1710681;82;21076;-82
2021/07/27 09:05:18;;;;;;;;;;;;;;;25.28;78.77;99861.70;1707934;82;20174;-76
2021/07/27 09:07:43;;;;;;;;;;;;;;;25.31;78.71;99858.50;1710751;82;20144;-77
2021/07/27 09:10:15;;;;;;;;;;;;;;;25.39;77.97;99854.50;1704060;82;20255;-76
2021/07/27 09:12:57;;;;;;;;;;;;;;;25.56;76.99;99858.38;1697161;82;20178;-77
2021/07/27 09:15:24;;;;;;;;;;;;;;;25.71;76.31;99858.41;1712748;82;21148;-76
2021/07/27 09:17:54;;;;;;;;;;;;;;;25.95;75.28;99862.05;1704466;83;20167;-77
2021/07/27 09:20:34;;;;;;;;;;;;;;;25.84;72.99;99860.36;1706562;82;20499;-78
2021/07/27 09:23:00;;;;;;;;;;;;;;;25.95;72.51;99861.50;1699385;82;20233;-77
2021/07/27 09:25:27;;;;;;;;;;;;;;;25.97;72.76;99859.88;1699635;82;20204;-77
2021/07/27 09:28:08;;;;;;;;;;;;;;;25.89;73.34;99859.85;1704260;82;21083;-77
2021/07/27 09:30:36;;;;;;;;;;;;;;;25.94;72.85;99866.63;1704224;82;20213;-78
2021/07/27 09:33:02;;;;;;;;;;;;;;;25.96;72.72;99861.78;1667141;82;20183;-77
2021/07/27 09:35:30;;;;;;;;;;;;;;;25.84;71.65;99867.12;1704729;82;20233;-79
2021/07/27 09:38:08;;;;;;;;;;;;;;;25.80;72.50;99863.59;1705509;82;20185;-83
2021/07/27 09:40:35;;;;;;;;;;;;;;;25.89;72.61;99864.45;1707075;82;21158;-79
2021/07/27 09:43:01;;;;;;;;;;;;;;;26.08;72.13;99871.58;1700603;82;20171;-78
2021/07/27 09:45:27;;;;;;;;;;;;;;;26.19;71.82;99869.72;1708255;82;20461;-80
2021/07/27 09:47:55;;;;;;;;;;;;;;;26.18;71.43;99868.91;1705966;82;20146;-79
2021/07/27 09:50:24;;;;;;;;;;;;;;;26.11;70.99;99870.49;1703985;82;20174;-84
2021/07/27 09:52:50;;;;;;;;;;;;;;;26.08;70.91;99876.44;1707485;82;22174;-80
2021/07/27 09:55:16;;;;;;;;;;;;;;;26.14;70.73;99882.14;1708989;82;20455;-78
2021/07/27 09:57:42;;;;;;;;;;;;;;;26.17;70.79;99886.77;1711535;82;20251;-79
2021/07/27 10:00:08;;;;;;;;;;;;;;;26.28;71.43;99882.45;1704733;82;20163;-80
2021/07/27 10:02:37;;;;;;;;;;;;;;;26.21;73.57;99895.97;1714564;82;20179;-78
2021/07/27 10:05:03;;;;;;;;;;;;;;;26.13;73.55;99894.06;1710811;82;21100;-79
2021/07/27 10:07:29;;;;;;;;;;;;;;;26.18;72.77;99897.84;1715163;82;20264;-77
2021/07/27 10:10:06;;;;;;;;;;;;;;;26.22;73.21;99903.02;1709459;82;20184;-78
2021/07/27 10:12:35;;;;;;;;;;;;;;;26.37;73.46;99901.70;1700444;82;20176;-78
2021/07/27 10:15:11;;;;;;;;;;;;;;;26.44;72.13;99902.79;1711354;82;20236;-78
2021/07/27 10:17:52;;;;;;;;;;;;;;;26.35;71.27;99910.61;1708274;82;21135;-82
2021/07/27 10:20:25;;;;;;;;;;;;;;;26.36;71.54;99908.19;1711399;82;20195;-76
2021/07/27 10:22:51;;;;;;;;;;;;;;;26.28;71.03;99912.23;1712499;82;20471;-82
2021/07/27 10:25:17;;;;;;;;;;;;;;;26.32;70.81;99908.47;1707419;82;20118;-80
2021/07/27 10:27:53;;;;;;;;;;;;;;;26.41;69.91;99910.90;1710129;83;20175;-81
2021/07/27 10:30:33;;;;;;;;;;;;;;;26.21;70.52;99918.45;1705612;82;21103;-79
2021/07/27 10:32:58;;;;;;;;;;;;;;;26.18;71.30;99910.03;1706443;82;20143;-79
2021/07/27 10:35:33;;;;;;;;;;;;;;;26.37;70.68;99920.66;1704074;82;20174;-82
2021/07/27 10:38:11;;;;;;;;;;;;;;;26.32;71.32;99910.63;1673320;82;39196;-78
2021/07/27 10:40:37;;;;;;;;;;;;;;;26.30;70.49;99920.08;1699800;82;20472;-79
2021/07/27 10:43:03;;;;;;;;;;;;;;;26.20;70.60;99914.66;1705746;82;21102;-80
2021/07/27 10:45:29;;;;;;;;;;;;;;;26.39;70.54;99909.01;1713062;82;20192;-80
2021/07/27 10:47:55;;;;;;;;;;;;;;;26.26;68.85;99921.72;1712464;82;20656;-78
2021/07/27 10:50:25;;;;;;;;;;;;;;;26.17;69.88;99922.76;1713300;82;20594;-79
2021/07/27 10:53:12;;;;;;;;;;;;;;;26.16;70.84;99927.89;1717124;82;20143;-79
2021/07/27 10:55:38;;;;;;;;;;;;;;;26.05;70.12;99917.56;1707089;82;21031;-80
2021/07/27 10:58:09;;;;;;;;;;;;;;;26.17;70.47;99916.55;1711960;82;20385;-80
2021/07/27 11:00:35;;;;;;;;;;;;;;;26.34;70.34;99919.28;1707315;82;20201;-82
2021/07/27 11:03:02;;;;;;;;;;;;;;;26.28;70.86;99917.64;1714952;82;20892;-80
2021/07/27 11:05:28;;;;;;;;;;;;;;;26.51;69.52;99915.55;1715722;82;20151;-79
2021/07/27 11:07:54;;;;;;;;;;;;;;;26.55;70.01;99921.23;1711343;82;21091;-82
2021/07/27 11:10:21;;;;;;;;;;;;;;;26.47;70.44;99915.24;1711192;82;20140;-77
2021/07/27 11:12:46;;;;;;;;;;;;;;;26.62;70.25;99917.18;1708764;82;20202;-79
2021/07/27 11:15:19;;;;;;;;;;;;;;;26.75;70.02;99915.86;1702444;82;20229;-80
2021/07/27 11:17:48;;;;;;;;;;;;;;;26.60;69.79;99919.88;1699022;82;20262;-80
2021/07/27 11:20:22;;;;;;;;;;;;;;;26.74;69.52;99912.91;1706087;82;21227;-79
2021/07/27 11:22:50;;;;;;;;;;;;;;;26.89;68.90;99915.34;1710502;82;20135;-79
2021/07/27 11:25:17;;;;;;;;;;;;;;;27.02;68.89;99917.52;1713971;82;20224;-84
2021/07/27 11:27:43;;;;;;;;;;;;;;;26.90;67.70;99925.91;1700181;82;20150;-79
2021/07/27 11:30:09;;;;;;;;;;;;;;;26.74;68.08;99925.09;1703693;82;20148;-77
2021/07/27 11:32:49;;;;;;;;;;;;;;;26.87;68.55;99920.48;1711319;82;22367;-79
2021/07/27 11:35:16;;;;;;;;;;;;;;;27.04;66.54;99927.53;1702489;83;20742;-81
2021/07/27 11:37:43;;;;;;;;;;;;;;;26.79;64.69;99933.21;1705025;82;20163;-82
2021/07/27 11:40:23;;;;;;;;;;;;;;;26.76;64.35;99922.11;1701262;82;20799;-78
2021/07/27 11:43:04;;;;;;;;;;;;;;;26.81;63.26;99914.78;1709612;83;20152;-79
2021/07/27 11:45:27;;;;;;;;;;;;;;;27.06;63.92;99915.88;1708485;82;20144;-80
2021/07/27 11:47:53;;;;;;;;;;;;;;;26.76;64.25;99917.50;1712495;82;20141;-83
2021/07/27 11:50:29;;;;;;;;;;;;;;;26.87;63.69;99903.41;1711499;82;20517;-79
2021/07/27 11:52:56;;;;;;;;;;;;;;;26.85;63.53;99910.46;1706130;82;20705;-78
2021/07/27 11:55:32;;;;;;;;;;;;;;;26.84;63.70;99900.70;1710461;82;20244;-77
2021/07/27 11:57:57;;;;;;;;;;;;;;;26.97;63.59;99912.91;1709133;82;21164;-81
2021/07/27 12:00:23;;;;;;;;;;;;;;;27.02;63.87;99900.70;1699664;82;20148;-78
2021/07/27 12:02:49;;;;;;;;;;;;;;;27.18;63.91;99898.78;1714262;83;20256;-78
2021/07/27 12:05:14;;;;;;;;;;;;;;;27.23;63.69;99891.99;1687741;82;20240;-80
2021/07/27 12:07:40;;;;;;;;;;;;;;;27.35;64.01;99896.36;1701211;82;20216;-81
2021/07/27 12:10:06;;;;;;;;;;;;;;;27.48;63.79;99891.70;1704492;82;21146;-83
2021/07/27 12:12:32;;;;;;;;;;;;;;;27.67;63.10;99888.40;1711056;82;20241;-82
2021/07/27 12:14:58;;;;;;;;;;;;;;;27.74;62.72;99876.72;1711485;82;20154;-80
2021/07/27 12:17:24;;;;;;;;;;;;;;;27.78;62.46;99883.23;1702881;82;21229;-81
2021/07/27 12:19:49;;;;;;;;;;;;;;;27.68;62.65;99878.63;1707092;82;20174;-81
2021/07/27 12:22:15;;;;;;;;;;;;;;;27.77;62.51;99868.02;1700875;82;21081;-79
2021/07/27 12:24:41;;;;;;;;;;;;;;;27.82;62.20;99863.92;1703212;83;20370;-78
2021/07/27 12:27:06;;;;;;;;;;;;;;;27.90;61.82;99861.98;1705278;82;20296;-81
2021/07/27 12:29:32;;;;;;;;;;;;;;;27.90;62.21;99853.84;1709106;82;20138;-82
2021/07/27 12:31:57;;;;;;;;;;;;;;;28.03;62.26;99857.06;1705636;82;20912;-79
2021/07/27 12:34:23;;;;;;;;;;;;;;;28.19;62.26;99839.61;1696928;82;22045;-79
2021/07/27 12:36:48;;;;;;;;;;;;;;;28.24;61.73;99850.42;1700640;83;20137;-78
2021/07/27 12:39:14;;;;;;;;;;;;;;;28.01;59.43;99845.69;1708421;82;20544;-79
2021/07/27 12:41:39;;;;;;;;;;;;;;;28.05;60.08;99842.69;1709220;82;20215;-80
2021/07/27 12:44:05;;;;;;;;;;;;;;;28.34;59.80;99848.73;1708382;82;20228;-79
2021/07/27 12:46:33;;;;;;;;;;;;;;;28.24;59.70;99838.20;1707438;82;21143;-78
2021/07/27 12:48:59;;;;;;;;;;;;;;;28.29;58.37;99835.48;1698335;83;20185;-78
2021/07/27 12:51:25;;;;;;;;;;;;;;;28.35;58.19;99836.78;1704280;82;20345;-80
2021/07/27 12:53:51;;;;;;;;;;;;;;;28.27;57.85;99840.91;1697703;82;20676;-78
2021/07/27 12:56:17;;;;;;;;;;;;;;;28.51;57.56;99839.67;1703308;82;20467;-84
2021/07/27 12:58:42;;;;;;;;;;;;;;;28.59;55.48;99835.01;1699703;82;21093;-79
2021/07/27 13:01:08;;;;;;;;;;;;;;;28.34;55.35;99846.84;1703906;82;20150;-78
2021/07/27 13:03:33;;;;;;;;;;;;;;;28.34;54.66;99840.59;1707618;83;20216;-78